CHICAGO AURORA MUNICIPAL, IL, United States (KARR) 41-46N 088-28W 215M
Wind: from the N (350 degrees) at 3 MPH (3 KT):0
Visibility: 8 mile(s):0
Sky conditions: mostly cloudy
Precipitation last hour: 0.01 inches
Temperature: 73.9 F (23.3 C)
Dew Point: 73.0 F (22.8 C)
Relative Humidity: 97%
Pressure (altimeter): 29.94 in. Hg (1013 hPa)
Pressure tendency: 0.01 inches (0.3 hPa) higher than three hours ago
ob: KARR 161152Z 35003KT 8SM BKN110 23/23 A2994 RMK AO2 RAB15E25 SLP133 P0001 60001 70001 T02330228 10239 20211 50003
Raw METAR:KARR 161152Z 35003KT 8SM BKN110 23/23 A2994 RMK AO2 RAB15E25 SLP133 P0001 60001 70001 T02330228 10239 20211 50003
cycle: 12
Back to top

CHICAGO/WEST CH DUPAGE, IL, United States (KDPA) 41-54N 88-15W 230M
Wind: from the W (280 degrees) at 7 MPH (6 KT):0
Visibility: 6 mile(s):0
Sky conditions: overcast
Weather: mist
Precipitation last hour: A trace
Temperature: 75.0 F (23.9 C)
Dew Point: 73.0 F (22.8 C)
Relative Humidity: 93%
Pressure (altimeter): 29.94 in. Hg (1013 hPa)
Pressure tendency: 0.01 inches (0.4 hPa) higher than three hours ago
ob: KDPA 161152Z 28006KT 6SM BR SCT040 OVC100 24/23 A2994 RMK AO2 RAB17E27 SLP132 P0000 60000 T02390228 10244 20217 50004
Raw METAR:KDPA 161152Z 28006KT 6SM BR SCT040 OVC100 24/23 A2994 RMK AO2 RAB17E27 SLP132 P0000 60000 T02390228 10244 20217 50004
cycle: 12
Back to top

De Kalb, De Kalb Taylor Municipal Airport, IL, United States (KDKB) 41-55-55N 088-42-30W
Wind: Calm:0
Visibility: 10 mile(s):0
Sky conditions: partly cloudy
Temperature: 75.7 F (24.3 C)
Dew Point: 73.9 F (23.3 C)
Relative Humidity: 94%
Pressure (altimeter): 29.96 in. Hg (1014 hPa)
ob: KDKB 161235Z AUTO 00000KT 10SM SCT090 24/23 A2996 RMK AO2 T02430233
Raw METAR:KDKB 161235Z AUTO 00000KT 10SM SCT090 24/23 A2996 RMK AO2 T02430233
cycle: 12
Back to top

Joliet, Joliet Regional Airport, IL, United States (KJOT) 41-31-05N 088-10-31W
Wind: from the N (010 degrees) at 5 MPH (4 KT):0
Visibility: 10 mile(s):0
Sky conditions: clear
Temperature: 78.3 F (25.7 C)
Dew Point: 75.4 F (24.1 C)
Relative Humidity: 90%
Pressure (altimeter): 29.94 in. Hg (1013 hPa)
ob: KJOT 161235Z AUTO 01004KT 10SM CLR 26/24 A2994 RMK AO2 T02570241
Raw METAR:KJOT 161235Z AUTO 01004KT 10SM CLR 26/24 A2994 RMK AO2 T02570241
cycle: 12
Back to top

Kankakee, Greater Kankakee Airport, IL, United States (KIKK) 41-04-17N 087-50-47W
Wind: Calm:0
Visibility: 10 mile(s):0
Sky conditions: clear
Temperature: 75.4 F (24.1 C)
Dew Point: 74.5 F (23.6 C)
Relative Humidity: 97%
Pressure (altimeter): 29.95 in. Hg (1014 hPa)
ob: KIKK 161235Z AUTO 00000KT 10SM CLR 24/24 A2995 RMK AO2 T02410236
Raw METAR:KIKK 161235Z AUTO 00000KT 10SM CLR 24/24 A2995 RMK AO2 T02410236
cycle: 12
Back to top

Morris, Morris Municipal-James R Washburn Field Airport, IL, United States (KC09) 41-25-31N 088-25-07W
Wind: Calm:0
Visibility: 7 mile(s):0
Sky conditions: clear
Temperature: 76.1 F (24.5 C)
Dew Point: 74.3 F (23.5 C)
Relative Humidity: 94%
Pressure (altimeter): 29.94 in. Hg (1013 hPa)
ob: KC09 161235Z AUTO 00000KT 7SM CLR 25/24 A2994 RMK AO2 T02450235
Raw METAR:KC09 161235Z AUTO 00000KT 7SM CLR 25/24 A2994 RMK AO2 T02450235
cycle: 12
Back to top

Peru, Illinois Valley Regional-Walter A Duncan Field Airport, IL, United States (KVYS) 41-21-07N 089-09-11W
Wind: Calm:0
Visibility: 7 mile(s):0
Sky conditions: clear
Temperature: 77.7 F (25.4 C)
Dew Point: 74.8 F (23.8 C)
Relative Humidity: 90%
Pressure (altimeter): 29.96 in. Hg (1014 hPa)
ob: KVYS 161235Z AUTO 00000KT 7SM CLR 25/24 A2996 RMK AO2 T02540238
Raw METAR:KVYS 161235Z AUTO 00000KT 7SM CLR 25/24 A2996 RMK AO2 T02540238
cycle: 12
Back to top

Rochelle, Rochelle Municipal-Koritz Field Airport, IL, United States (KRPJ) 41-53-35N 089-04-42W
Wind: Calm:0
Visibility: 5 mile(s):0
Sky conditions: clear
Weather: mist
Temperature: 73.9 F (23.3 C)
Dew Point: 73.9 F (23.3 C)
Relative Humidity: 100%
Pressure (altimeter): 29.96 in. Hg (1014 hPa)
ob: KRPJ 161235Z AUTO 00000KT 5SM BR CLR 23/23 A2996 RMK AO2 T02330233
Raw METAR:KRPJ 161235Z AUTO 00000KT 5SM BR CLR 23/23 A2996 RMK AO2 T02330233
cycle: 12
Back to top